Terminal Aerodrome Forecast
Issued by NWS Portland, OR

Home | Current Version | Previous Version | Text Only | Print | Product List | Glossary On
Versions: 1 2 3 4 5 6 7 8 9 10 11 12 13 14 15 16 17
000
FTUS46 KPQR 201120
TAFEUG
TAF
KEUG 201120Z 2012/2112 20003KT P6SM BCFG SCT002
     FM201500 VRB03KT P6SM SCT100 BKN200
     FM202300 24006KT P6SM FEW060 BKN100
     FM211000 19013KT P6SM -RA SCT040 OVC070=

USA.gov is the U.S. government's official web portal to all federal, state and local government web resources and services.